sensor_id;sensor_type;location;lat;lon;timestamp;pressure;altitude;pressure_sealevel;temperature
76541;BMP280;65385;55.772;37.658;2023-08-31T00:00:43;99727.59;;;14.62
76541;BMP280;65385;55.772;37.658;2023-08-31T00:01:44;99739.97;;;14.62
76541;BMP280;65385;55.772;37.658;2023-08-31T00:02:45;99728.66;;;14.61
76541;BMP280;65385;55.772;37.658;2023-08-31T00:03:46;99736.56;;;14.61
76541;BMP280;65385;55.772;37.658;2023-08-31T00:04:46;99737.59;;;14.60
76541;BMP280;65385;55.772;37.658;2023-08-31T00:05:47;99738.66;;;14.59
76541;BMP280;65385;55.772;37.658;2023-08-31T00:06:49;99734.53;;;14.58
76541;BMP280;65385;55.772;37.658;2023-08-31T00:07:50;99740.84;;;14.57
76541;BMP280;65385;55.772;37.658;2023-08-31T00:08:51;99729.25;;;14.58
76541;BMP280;65385;55.772;37.658;2023-08-31T00:09:52;99734.78;;;14.57
76541;BMP280;65385;55.772;37.658;2023-08-31T00:11:00;99733.72;;;14.58
76541;BMP280;65385;55.772;37.658;2023-08-31T00:12:01;99730.31;;;14.57
76541;BMP280;65385;55.772;37.658;2023-08-31T00:13:03;99731.09;;;14.58
76541;BMP280;65385;55.772;37.658;2023-08-31T00:14:04;99737.16;;;14.58
76541;BMP280;65385;55.772;37.658;2023-08-31T00:15:05;99743.16;;;14.59
76541;BMP280;65385;55.772;37.658;2023-08-31T00:16:06;99731.88;;;14.58
76541;BMP280;65385;55.772;37.658;2023-08-31T00:17:10;99736.03;;;14.59
76541;BMP280;65385;55.772;37.658;2023-08-31T00:18:10;99731.88;;;14.58
76541;BMP280;65385;55.772;37.658;2023-08-31T00:19:14;99731.88;;;14.58
76541;BMP280;65385;55.772;37.658;2023-08-31T00:20:15;99734.00;;;14.56
76541;BMP280;65385;55.772;37.658;2023-08-31T00:21:15;99723.47;;;14.56
76541;BMP280;65385;55.772;37.658;2023-08-31T00:22:16;99728.75;;;14.56
76541;BMP280;65385;55.772;37.658;2023-08-31T00:23:17;99715.06;;;14.54
76541;BMP280;65385;55.772;37.658;2023-08-31T00:24:19;99737.69;;;14.55
76541;BMP280;65385;55.772;37.658;2023-08-31T00:25:22;99737.69;;;14.55
76541;BMP280;65385;55.772;37.658;2023-08-31T00:26:23;99736.91;;;14.55
76541;BMP280;65385;55.772;37.658;2023-08-31T00:27:24;99732.44;;;14.55
76541;BMP280;65385;55.772;37.658;2023-08-31T00:28:24;99737.69;;;14.55
76541;BMP280;65385;55.772;37.658;2023-08-31T00:29:26;99732.16;;;14.57
76541;BMP280;65385;55.772;37.658;2023-08-31T00:30:27;99732.44;;;14.55
76541;BMP280;65385;55.772;37.658;2023-08-31T00:31:29;99737.69;;;14.55
76541;BMP280;65385;55.772;37.658;2023-08-31T00:32:31;99733.22;;;14.56
76541;BMP280;65385;55.772;37.658;2023-08-31T00:33:34;99738.22;;;14.57
76541;BMP280;65385;55.772;37.658;2023-08-31T00:34:35;99734.78;;;14.57
76541;BMP280;65385;55.772;37.658;2023-08-31T00:35:35;99739.00;;;14.58
76541;BMP280;65385;55.772;37.658;2023-08-31T00:36:36;99737.41;;;14.57
76541;BMP280;65385;55.772;37.658;2023-08-31T00:37:38;99743.47;;;14.57
76541;BMP280;65385;55.772;37.658;2023-08-31T00:38:39;99740.06;;;14.57
76541;BMP280;65385;55.772;37.658;2023-08-31T00:39:42;99747.16;;;14.56
76541;BMP280;65385;55.772;37.658;2023-08-31T00:40:44;99742.97;;;14.55
76541;BMP280;65385;55.772;37.658;2023-08-31T00:41:46;99752.16;;;14.58
76541;BMP280;65385;55.772;37.658;2023-08-31T00:42:46;99742.69;;;14.57
76541;BMP280;65385;55.772;37.658;2023-08-31T00:43:47;99747.16;;;14.56
76541;BMP280;65385;55.772;37.658;2023-08-31T00:44:48;99752.94;;;14.58
76541;BMP280;65385;55.772;37.658;2023-08-31T00:45:52;99741.31;;;14.59
76541;BMP280;65385;55.772;37.658;2023-08-31T00:46:57;99747.94;;;14.57
76541;BMP280;65385;55.772;37.658;2023-08-31T00:47:58;99748.41;;;14.59
76541;BMP280;65385;55.772;37.658;2023-08-31T00:48:58;99743.16;;;14.59
76541;BMP280;65385;55.772;37.658;2023-08-31T00:49:59;99746.56;;;14.59
76541;BMP280;65385;55.772;37.658;2023-08-31T00:51:02;99737.16;;;14.58
76541;BMP280;65385;55.772;37.658;2023-08-31T00:52:04;99750.31;;;14.58
76541;BMP280;65385;55.772;37.658;2023-08-31T00:53:04;99749.19;;;14.59
76541;BMP280;65385;55.772;37.658;2023-08-31T00:54:06;99748.41;;;14.59
76541;BMP280;65385;55.772;37.658;2023-08-31T00:55:07;99739.00;;;14.58
76541;BMP280;65385;55.772;37.658;2023-08-31T00:56:08;99743.47;;;14.57
76541;BMP280;65385;55.772;37.658;2023-08-31T00:57:09;99744.53;;;14.56
76541;BMP280;65385;55.772;37.658;2023-08-31T00:58:10;99748.22;;;14.55
76541;BMP280;65385;55.772;37.658;2023-08-31T00:59:11;99741.38;;;14.54
76541;BMP280;65385;55.772;37.658;2023-08-31T01:00:12;99742.75;;;14.52
76541;BMP280;65385;55.772;37.658;2023-08-31T01:01:43;99749.59;;;14.53
76541;BMP280;65385;55.772;37.658;2023-08-31T01:03:05;99745.69;;;14.50
76541;BMP280;65385;55.772;37.658;2023-08-31T01:04:29;99747.78;;;14.48
76541;BMP280;65385;55.772;37.658;2023-08-31T01:06:53;99747.31;;;14.46
76541;BMP280;65385;55.772;37.658;2023-08-31T01:08:07;99751.00;;;14.45
76541;BMP280;65385;55.772;37.658;2023-08-31T01:09:26;99750.19;;;14.45
76541;BMP280;65385;55.772;37.658;2023-08-31T01:10:36;99750.50;;;14.43
76541;BMP280;65385;55.772;37.658;2023-08-31T01:12:54;99750.00;;;14.41
76541;BMP280;65385;55.772;37.658;2023-08-31T01:14:11;99745.03;;;14.40
76541;BMP280;65385;55.772;37.658;2023-08-31T01:15:13;99746.88;;;14.39
76541;BMP280;65385;55.772;37.658;2023-08-31T01:16:16;99748.72;;;14.38
76541;BMP280;65385;55.772;37.658;2023-08-31T01:17:20;99746.88;;;14.39
76541;BMP280;65385;55.772;37.658;2023-08-31T01:18:26;99741.59;;;14.39
76541;BMP280;65385;55.772;37.658;2023-08-31T01:21:00;99743.19;;;14.40
76541;BMP280;65385;55.772;37.658;2023-08-31T01:22:05;99736.81;;;14.41
76541;BMP280;65385;55.772;37.658;2023-08-31T01:23:16;99735.28;;;14.40
76541;BMP280;65385;55.772;37.658;2023-08-31T01:24:17;99735.28;;;14.40
76541;BMP280;65385;55.772;37.658;2023-08-31T01:25:18;99740.53;;;14.40
76541;BMP280;65385;55.772;37.658;2023-08-31T01:26:20;99743.97;;;14.41
76541;BMP280;65385;55.772;37.658;2023-08-31T01:27:24;99742.19;;;14.36
76541;BMP280;65385;55.772;37.658;2023-08-31T01:28:24;99743.25;;;14.35
76541;BMP280;65385;55.772;37.658;2023-08-31T01:29:25;99748.53;;;14.35
76541;BMP280;65385;55.772;37.658;2023-08-31T01:30:29;99744.81;;;14.36
76541;BMP280;65385;55.772;37.658;2023-08-31T01:31:31;99740.09;;;14.33
76541;BMP280;65385;55.772;37.658;2023-08-31T01:32:31;99750.06;;;14.36
76541;BMP280;65385;55.772;37.658;2023-08-31T01:33:34;99750.06;;;14.36
76541;BMP280;65385;55.772;37.658;2023-08-31T01:34:35;99748.53;;;14.35
76541;BMP280;65385;55.772;37.658;2023-08-31T01:35:48;99743.25;;;14.35
76541;BMP280;65385;55.772;37.658;2023-08-31T01:36:58;99747.75;;;14.34
76541;BMP280;65385;55.772;37.658;2023-08-31T01:38:02;99746.94;;;14.34
76541;BMP280;65385;55.772;37.658;2023-08-31T01:40:22;99748.00;;;14.33
76541;BMP280;65385;55.772;37.658;2023-08-31T01:41:25;99742.22;;;14.31
76541;BMP280;65385;55.772;37.658;2023-08-31T01:42:27;99737.75;;;14.31
76541;BMP280;65385;55.772;37.658;2023-08-31T01:43:29;99735.38;;;14.30
76541;BMP280;65385;55.772;37.658;2023-08-31T01:44:34;99740.66;;;14.30
76541;BMP280;65385;55.772;37.658;2023-08-31T01:45:35;99730.13;;;14.30
76541;BMP280;65385;55.772;37.658;2023-08-31T01:46:38;99745.13;;;14.29
76541;BMP280;65385;55.772;37.658;2023-08-31T01:47:39;99741.75;;;14.29
76541;BMP280;65385;55.772;37.658;2023-08-31T01:48:40;99739.84;;;14.29
76541;BMP280;65385;55.772;37.658;2023-08-31T01:49:41;99744.41;;;14.29
76541;BMP280;65385;55.772;37.658;2023-08-31T01:50:43;99736.50;;;14.29
76541;BMP280;65385;55.772;37.658;2023-08-31T01:51:44;99731.50;;;14.27
76541;BMP280;65385;55.772;37.658;2023-08-31T01:52:45;99733.34;;;14.27
76541;BMP280;65385;55.772;37.658;2023-08-31T01:53:45;99736.78;;;14.27
76541;BMP280;65385;55.772;37.658;2023-08-31T01:54:46;99738.63;;;14.27
76541;BMP280;65385;55.772;37.658;2023-08-31T01:55:47;99746.50;;;14.27
76541;BMP280;65385;55.772;37.658;2023-08-31T01:56:47;99742.03;;;14.27
76541;BMP280;65385;55.772;37.658;2023-08-31T01:57:48;99747.28;;;14.27
76541;BMP280;65385;55.772;37.658;2023-08-31T01:58:54;99743.88;;;14.27
76541;BMP280;65385;55.772;37.658;2023-08-31T01:59:55;99740.47;;;14.26
76541;BMP280;65385;55.772;37.658;2023-08-31T02:00:57;99748.34;;;14.26
76541;BMP280;65385;55.772;37.658;2023-08-31T02:01:57;99745.72;;;14.26
76541;BMP280;65385;55.772;37.658;2023-08-31T02:02:59;99739.66;;;14.26
76541;BMP280;65385;55.772;37.658;2023-08-31T02:03:59;99744.94;;;14.26
76541;BMP280;65385;55.772;37.658;2023-08-31T02:05:02;99739.66;;;14.26
76541;BMP280;65385;55.772;37.658;2023-08-31T02:06:04;99744.16;;;14.25
76541;BMP280;65385;55.772;37.658;2023-08-31T02:07:05;99748.63;;;14.25
76541;BMP280;65385;55.772;37.658;2023-08-31T02:08:07;99741.50;;;14.25
76541;BMP280;65385;55.772;37.658;2023-08-31T02:09:08;99744.94;;;14.26
76541;BMP280;65385;55.772;37.658;2023-08-31T02:10:09;99733.34;;;14.27
76541;BMP280;65385;55.772;37.658;2023-08-31T02:11:30;99727.56;;;14.25
76541;BMP280;65385;55.772;37.658;2023-08-31T02:12:32;99729.16;;;14.26
76541;BMP280;65385;55.772;37.658;2023-08-31T02:13:33;99734.41;;;14.26
76541;BMP280;65385;55.772;37.658;2023-08-31T02:14:34;99735.97;;;14.27
76541;BMP280;65385;55.772;37.658;2023-08-31T02:15:38;99735.19;;;14.26
76541;BMP280;65385;55.772;37.658;2023-08-31T02:16:38;99743.09;;;14.26
76541;BMP280;65385;55.772;37.658;2023-08-31T02:17:39;99746.25;;;14.28
76541;BMP280;65385;55.772;37.658;2023-08-31T02:18:40;99742.50;;;14.29
76541;BMP280;65385;55.772;37.658;2023-08-31T02:19:41;99740.66;;;14.30
76541;BMP280;65385;55.772;37.658;2023-08-31T02:20:41;99734.59;;;14.29
76541;BMP280;65385;55.772;37.658;2023-08-31T02:21:42;99737.22;;;14.29
76541;BMP280;65385;55.772;37.658;2023-08-31T02:22:43;99734.31;;;14.31
76541;BMP280;65385;55.772;37.658;2023-08-31T02:23:43;99735.91;;;14.32
76541;BMP280;65385;55.772;37.658;2023-08-31T02:24:44;99732.22;;;14.33
76541;BMP280;65385;55.772;37.658;2023-08-31T02:25:45;99731.16;;;14.34
76541;BMP280;65385;55.772;37.658;2023-08-31T02:26:47;99738.00;;;14.35
76541;BMP280;65385;55.772;37.658;2023-08-31T02:27:48;99734.28;;;14.36
76541;BMP280;65385;55.772;37.658;2023-08-31T02:28:50;99730.56;;;14.37
76541;BMP280;65385;55.772;37.658;2023-08-31T02:29:50;99736.59;;;14.37
76541;BMP280;65385;55.772;37.658;2023-08-31T02:31:02;99744.25;;;14.39
76541;BMP280;65385;55.772;37.658;2023-08-31T02:32:05;99740.81;;;14.38
76541;BMP280;65385;55.772;37.658;2023-08-31T02:33:05;99737.13;;;14.40
76541;BMP280;65385;55.772;37.658;2023-08-31T02:34:06;99741.03;;;14.42
76541;BMP280;65385;55.772;37.658;2023-08-31T02:35:07;99745.25;;;14.43
76541;BMP280;65385;55.772;37.658;2023-08-31T02:36:08;99740.75;;;14.44
76541;BMP280;65385;55.772;37.658;2023-08-31T02:37:09;99748.09;;;14.47
76541;BMP280;65385;55.772;37.658;2023-08-31T02:38:09;99740.94;;;14.47
76541;BMP280;65385;55.772;37.658;2023-08-31T02:39:10;99745.69;;;14.50
76541;BMP280;65385;55.772;37.658;2023-08-31T02:40:11;99745.69;;;14.50
76541;BMP280;65385;55.772;37.658;2023-08-31T02:41:12;99745.06;;;14.53
76541;BMP280;65385;55.772;37.658;2023-08-31T02:42:14;99752.16;;;14.58
76541;BMP280;65385;55.772;37.658;2023-08-31T02:43:15;99743.66;;;14.61
76541;BMP280;65385;55.772;37.658;2023-08-31T02:44:15;99742.81;;;14.65
76541;BMP280;65385;55.772;37.658;2023-08-31T02:45:16;99739.59;;;14.68
76541;BMP280;65385;55.772;37.658;2023-08-31T02:46:18;99734.25;;;14.73
76541;BMP280;65385;55.772;37.658;2023-08-31T02:47:19;99733.69;;;14.76
76541;BMP280;65385;55.772;37.658;2023-08-31T02:48:20;99734.09;;;14.83
76541;BMP280;65385;55.772;37.658;2023-08-31T02:49:20;99734.34;;;14.87
76541;BMP280;65385;55.772;37.658;2023-08-31T02:50:21;99735.53;;;14.95
76541;BMP280;65385;55.772;37.658;2023-08-31T02:51:22;99737.00;;;15.01
76541;BMP280;65385;55.772;37.658;2023-08-31T02:52:22;99735.56;;;15.08
76541;BMP280;65385;55.772;37.658;2023-08-31T02:53:23;99733.63;;;15.14
76541;BMP280;65385;55.772;37.658;2023-08-31T02:54:23;99729.81;;;15.20
76541;BMP280;65385;55.772;37.658;2023-08-31T02:55:24;99734.41;;;15.28
76541;BMP280;65385;55.772;37.658;2023-08-31T02:56:25;99730.34;;;15.35
76541;BMP280;65385;55.772;37.658;2023-08-31T02:57:25;99733.13;;;15.44
76541;BMP280;65385;55.772;37.658;2023-08-31T02:58:26;99734.47;;;15.55
76541;BMP280;65385;55.772;37.658;2023-08-31T02:59:26;99730.34;;;15.63
76541;BMP280;65385;55.772;37.658;2023-08-31T03:00:27;99738.38;;;15.71
76541;BMP280;65385;55.772;37.658;2023-08-31T03:01:28;99728.72;;;15.80
76541;BMP280;65385;55.772;37.658;2023-08-31T03:02:29;99731.63;;;15.92
76541;BMP280;65385;55.772;37.658;2023-08-31T03:03:30;99728.00;;;16.02
76541;BMP280;65385;55.772;37.658;2023-08-31T03:04:30;99723.28;;;16.13
76541;BMP280;65385;55.772;37.658;2023-08-31T03:05:31;99725.13;;;16.26
76541;BMP280;65385;55.772;37.658;2023-08-31T03:06:32;99725.38;;;16.38
76541;BMP280;65385;55.772;37.658;2023-08-31T03:07:33;99715.06;;;16.50
76541;BMP280;65385;55.772;37.658;2023-08-31T03:08:34;99719.03;;;16.61
76541;BMP280;65385;55.772;37.658;2023-08-31T03:09:35;99722.22;;;16.72
76541;BMP280;65385;55.772;37.658;2023-08-31T03:10:40;99723.84;;;16.81
76541;BMP280;65385;55.772;37.658;2023-08-31T03:11:40;99725.44;;;16.91
76541;BMP280;65385;55.772;37.658;2023-08-31T03:12:41;99723.94;;;16.98
76541;BMP280;65385;55.772;37.658;2023-08-31T03:13:42;99721.47;;;17.02
76541;BMP280;65385;55.772;37.658;2023-08-31T03:14:43;99724.16;;;17.11
76541;BMP280;65385;55.772;37.658;2023-08-31T03:15:43;99719.34;;;17.21
76541;BMP280;65385;55.772;37.658;2023-08-31T03:16:44;99722.53;;;17.32
76541;BMP280;65385;55.772;37.658;2023-08-31T03:17:45;99716.84;;;17.47
76541;BMP280;65385;55.772;37.658;2023-08-31T03:18:46;99721.06;;;17.65
76541;BMP280;65385;55.772;37.658;2023-08-31T03:19:46;99718.94;;;17.84
76541;BMP280;65385;55.772;37.658;2023-08-31T03:20:47;99717.25;;;18.05
76541;BMP280;65385;55.772;37.658;2023-08-31T03:21:48;99712.09;;;18.26
76541;BMP280;65385;55.772;37.658;2023-08-31T03:22:49;99716.44;;;18.48
76541;BMP280;65385;55.772;37.658;2023-08-31T03:23:49;99720.63;;;18.66
76541;BMP280;65385;55.772;37.658;2023-08-31T03:24:50;99714.19;;;18.84
76541;BMP280;65385;55.772;37.658;2023-08-31T03:25:50;99711.94;;;19.03
76541;BMP280;65385;55.772;37.658;2023-08-31T03:26:51;99711.75;;;19.17
76541;BMP280;65385;55.772;37.658;2023-08-31T03:27:52;99707.75;;;19.31
76541;BMP280;65385;55.772;37.658;2023-08-31T03:28:53;99712.66;;;19.50
76541;BMP280;65385;55.772;37.658;2023-08-31T03:29:54;99712.44;;;19.64
76541;BMP280;65385;55.772;37.658;2023-08-31T03:30:56;99714.03;;;19.77
76541;BMP280;65385;55.772;37.658;2023-08-31T03:31:56;99713.00;;;19.90
76541;BMP280;65385;55.772;37.658;2023-08-31T03:32:57;99710.88;;;20.04
76541;BMP280;65385;55.772;37.658;2023-08-31T03:33:58;99701.97;;;20.21
76541;BMP280;65385;55.772;37.658;2023-08-31T03:34:58;99700.13;;;20.33
76541;BMP280;65385;55.772;37.658;2023-08-31T03:36:02;99699.94;;;20.50
76541;BMP280;65385;55.772;37.658;2023-08-31T03:37:04;99704.63;;;20.66
76541;BMP280;65385;55.772;37.658;2023-08-31T03:38:07;99712.88;;;20.85
76541;BMP280;65385;55.772;37.658;2023-08-31T03:39:09;99712.66;;;21.02
76541;BMP280;65385;55.772;37.658;2023-08-31T03:40:10;99714.97;;;21.15
76541;BMP280;65385;55.772;37.658;2023-08-31T03:41:11;99718.88;;;21.30
76541;BMP280;65385;55.772;37.658;2023-08-31T03:42:13;99718.50;;;21.44
76541;BMP280;65385;55.772;37.658;2023-08-31T03:43:14;99708.84;;;21.51
76541;BMP280;65385;55.772;37.658;2023-08-31T03:44:14;99711.13;;;21.65
76541;BMP280;65385;55.772;37.658;2023-08-31T03:45:15;99723.66;;;21.76
76541;BMP280;65385;55.772;37.658;2023-08-31T03:46:16;99721.09;;;21.80
76541;BMP280;65385;55.772;37.658;2023-08-31T03:47:16;99718.81;;;21.94
76541;BMP280;65385;55.772;37.658;2023-08-31T03:48:17;99723.00;;;22.07
76541;BMP280;65385;55.772;37.658;2023-08-31T03:49:18;99714.84;;;22.16
76541;BMP280;65385;55.772;37.658;2023-08-31T03:50:19;99721.66;;;22.29
76541;BMP280;65385;55.772;37.658;2023-08-31T03:51:20;99723.38;;;22.37
76541;BMP280;65385;55.772;37.658;2023-08-31T03:52:21;99730.13;;;22.46
76541;BMP280;65385;55.772;37.658;2023-08-31T03:53:23;99725.13;;;22.61
76541;BMP280;65385;55.772;37.658;2023-08-31T03:54:27;99720.06;;;22.71
76541;BMP280;65385;55.772;37.658;2023-08-31T03:55:28;99723.91;;;22.89
76541;BMP280;65385;55.772;37.658;2023-08-31T03:56:30;99723.84;;;23.01
76541;BMP280;65385;55.772;37.658;2023-08-31T03:57:34;99726.13;;;23.18
76541;BMP280;65385;55.772;37.658;2023-08-31T03:58:44;99716.19;;;23.35
76541;BMP280;65385;55.772;37.658;2023-08-31T03:59:45;99720.56;;;23.43
76541;BMP280;65385;55.772;37.658;2023-08-31T04:00:49;99721.16;;;23.52
76541;BMP280;65385;55.772;37.658;2023-08-31T04:01:52;99715.09;;;23.55
76541;BMP280;65385;55.772;37.658;2023-08-31T04:02:53;99722.84;;;23.60
76541;BMP280;65385;55.772;37.658;2023-08-31T04:03:57;99724.13;;;23.66
76541;BMP280;65385;55.772;37.658;2023-08-31T04:04:57;99726.16;;;23.72
76541;BMP280;65385;55.772;37.658;2023-08-31T04:05:58;99727.75;;;23.77
76541;BMP280;65385;55.772;37.658;2023-08-31T04:06:58;99727.13;;;23.83
76541;BMP280;65385;55.772;37.658;2023-08-31T04:07:59;99727.25;;;23.91
76541;BMP280;65385;55.772;37.658;2023-08-31T04:09:00;99727.38;;;23.98
76541;BMP280;65385;55.772;37.658;2023-08-31T04:10:00;99727.09;;;24.03
76541;BMP280;65385;55.772;37.658;2023-08-31T04:11:01;99722.38;;;24.15
76541;BMP280;65385;55.772;37.658;2023-08-31T04:12:02;99718.69;;;24.23
76541;BMP280;65385;55.772;37.658;2023-08-31T04:13:05;99716.81;;;24.27
76541;BMP280;65385;55.772;37.658;2023-08-31T04:14:05;99714.28;;;24.34
76541;BMP280;65385;55.772;37.658;2023-08-31T04:15:06;99720.53;;;24.42
76541;BMP280;65385;55.772;37.658;2023-08-31T04:16:07;99718.03;;;24.52
76541;BMP280;65385;55.772;37.658;2023-08-31T04:17:08;99724.31;;;24.64
76541;BMP280;65385;55.772;37.658;2023-08-31T04:18:09;99727.41;;;24.66
76541;BMP280;65385;55.772;37.658;2023-08-31T04:19:10;99726.41;;;24.74
76541;BMP280;65385;55.772;37.658;2023-08-31T04:20:11;99715.47;;;24.82
76541;BMP280;65385;55.772;37.658;2023-08-31T04:21:11;99722.13;;;24.95
76541;BMP280;65385;55.772;37.658;2023-08-31T04:22:12;99718.41;;;25.03
76541;BMP280;65385;55.772;37.658;2023-08-31T04:23:12;99721.97;;;25.11
76541;BMP280;65385;55.772;37.658;2023-08-31T04:24:13;99723.13;;;25.13
76541;BMP280;65385;55.772;37.658;2023-08-31T04:25:13;99722.34;;;25.09
76541;BMP280;65385;55.772;37.658;2023-08-31T04:26:14;99726.72;;;24.95
76541;BMP280;65385;55.772;37.658;2023-08-31T04:27:15;99732.47;;;24.71
76541;BMP280;65385;55.772;37.658;2023-08-31T04:28:15;99730.44;;;24.41
76541;BMP280;65385;55.772;37.658;2023-08-31T04:29:16;99735.75;;;24.38
76541;BMP280;65385;55.772;37.658;2023-08-31T04:30:16;99749.50;;;24.36
76541;BMP280;65385;55.772;37.658;2023-08-31T04:31:17;99740.91;;;24.27
76541;BMP280;65385;55.772;37.658;2023-08-31T04:32:18;99739.84;;;24.09
76541;BMP280;65385;55.772;37.658;2023-08-31T04:33:19;99735.28;;;23.91
76541;BMP280;65385;55.772;37.658;2023-08-31T04:34:20;99735.97;;;23.68
76541;BMP280;65385;55.772;37.658;2023-08-31T04:35:20;99743.50;;;23.44
76541;BMP280;65385;55.772;37.658;2023-08-31T04:36:21;99746.38;;;23.19
76541;BMP280;65385;55.772;37.658;2023-08-31T04:37:22;99745.09;;;22.98
76541;BMP280;65385;55.772;37.658;2023-08-31T04:38:22;99746.34;;;22.85
76541;BMP280;65385;55.772;37.658;2023-08-31T04:39:23;99746.66;;;22.68
76541;BMP280;65385;55.772;37.658;2023-08-31T04:40:24;99751.66;;;22.53
76541;BMP280;65385;55.772;37.658;2023-08-31T04:41:27;99748.09;;;22.34
76541;BMP280;65385;55.772;37.658;2023-08-31T04:42:27;99750.81;;;22.22
76541;BMP280;65385;55.772;37.658;2023-08-31T04:43:28;99749.66;;;22.07
76541;BMP280;65385;55.772;37.658;2023-08-31T04:44:28;99747.78;;;21.96
76541;BMP280;65385;55.772;37.658;2023-08-31T04:45:29;99757.41;;;21.84
76541;BMP280;65385;55.772;37.658;2023-08-31T04:46:29;99751.28;;;21.72
76541;BMP280;65385;55.772;37.658;2023-08-31T04:47:30;99753.47;;;21.54
76541;BMP280;65385;55.772;37.658;2023-08-31T04:48:30;99753.03;;;21.40
76541;BMP280;65385;55.772;37.658;2023-08-31T04:49:31;99751.13;;;21.29
76541;BMP280;65385;55.772;37.658;2023-08-31T04:50:31;99754.69;;;21.20
76541;BMP280;65385;55.772;37.658;2023-08-31T04:51:34;99752.22;;;21.15
76541;BMP280;65385;55.772;37.658;2023-08-31T04:52:35;99748.91;;;21.06
76541;BMP280;65385;55.772;37.658;2023-08-31T04:53:36;99754.13;;;21.03
76541;BMP280;65385;55.772;37.658;2023-08-31T04:54:36;99748.66;;;20.99
76541;BMP280;65385;55.772;37.658;2023-08-31T04:55:37;99750.00;;;20.93
76541;BMP280;65385;55.772;37.658;2023-08-31T04:56:38;99746.34;;;20.86
76541;BMP280;65385;55.772;37.658;2023-08-31T04:57:39;99745.00;;;20.80
76541;BMP280;65385;55.772;37.658;2023-08-31T04:58:39;99750.31;;;20.80
76541;BMP280;65385;55.772;37.658;2023-08-31T04:59:40;99755.19;;;20.78
76541;BMP280;65385;55.772;37.658;2023-08-31T05:00:40;99753.66;;;20.77
76541;BMP280;65385;55.772;37.658;2023-08-31T05:01:41;99751.75;;;20.77
76541;BMP280;65385;55.772;37.658;2023-08-31T05:02:41;99753.97;;;20.75
76541;BMP280;65385;55.772;37.658;2023-08-31T05:03:43;99757.59;;;20.71
76541;BMP280;65385;55.772;37.658;2023-08-31T05:04:44;99748.44;;;20.68
76541;BMP280;65385;55.772;37.658;2023-08-31T05:05:44;99754.06;;;20.67
76541;BMP280;65385;55.772;37.658;2023-08-31T05:06:45;99756.28;;;20.65
76541;BMP280;65385;55.772;37.658;2023-08-31T05:07:45;99760.03;;;20.63
76541;BMP280;65385;55.772;37.658;2023-08-31T05:08:47;99764.91;;;20.61
76541;BMP280;65385;55.772;37.658;2023-08-31T05:09:48;99745.84;;;20.59
76541;BMP280;65385;55.772;37.658;2023-08-31T05:10:50;99746.94;;;20.58
76541;BMP280;65385;55.772;37.658;2023-08-31T05:11:51;99751.16;;;20.59
76541;BMP280;65385;55.772;37.658;2023-08-31T05:12:51;99744.75;;;20.60
76541;BMP280;65385;55.772;37.658;2023-08-31T05:13:52;99749.44;;;20.76
76541;BMP280;65385;55.772;37.658;2023-08-31T05:14:52;99746.38;;;20.98
76541;BMP280;65385;55.772;37.658;2023-08-31T05:15:53;99745.03;;;21.16
76541;BMP280;65385;55.772;37.658;2023-08-31T05:16:53;99743.91;;;21.29
76541;BMP280;65385;55.772;37.658;2023-08-31T05:17:54;99749.03;;;21.46
76541;BMP280;65385;55.772;37.658;2023-08-31T05:18:55;99741.00;;;21.70
76541;BMP280;65385;55.772;37.658;2023-08-31T05:19:55;99745.59;;;21.98
76541;BMP280;65385;55.772;37.658;2023-08-31T05:20:56;99751.56;;;22.22
76541;BMP280;65385;55.772;37.658;2023-08-31T05:21:57;99742.53;;;22.55
76541;BMP280;65385;55.772;37.658;2023-08-31T05:22:57;99736.25;;;22.94
76541;BMP280;65385;55.772;37.658;2023-08-31T05:23:58;99736.72;;;23.31
76541;BMP280;65385;55.772;37.658;2023-08-31T05:24:58;99734.06;;;23.69
76541;BMP280;65385;55.772;37.658;2023-08-31T05:26:00;99734.38;;;24.06
76541;BMP280;65385;55.772;37.658;2023-08-31T05:27:01;99725.09;;;24.41
76541;BMP280;65385;55.772;37.658;2023-08-31T05:28:03;99734.03;;;24.72
76541;BMP280;65385;55.772;37.658;2023-08-31T05:29:03;99729.13;;;25.03
76541;BMP280;65385;55.772;37.658;2023-08-31T05:30:07;99729.88;;;25.30
76541;BMP280;65385;55.772;37.658;2023-08-31T05:31:08;99735.66;;;25.65
76541;BMP280;65385;55.772;37.658;2023-08-31T05:32:08;99734.81;;;25.91
76541;BMP280;65385;55.772;37.658;2023-08-31T05:33:09;99740.47;;;26.23
76541;BMP280;65385;55.772;37.658;2023-08-31T05:34:10;99745.69;;;26.49
76541;BMP280;65385;55.772;37.658;2023-08-31T05:35:10;99738.53;;;26.67
76541;BMP280;65385;55.772;37.658;2023-08-31T05:36:11;99742.94;;;27.00
76541;BMP280;65385;55.772;37.658;2023-08-31T05:37:12;99739.63;;;27.20
76541;BMP280;65385;55.772;37.658;2023-08-31T05:38:13;99743.88;;;27.28
76541;BMP280;65385;55.772;37.658;2023-08-31T05:39:13;99738.97;;;27.52
76541;BMP280;65385;55.772;37.658;2023-08-31T05:40:16;99744.78;;;27.71
76541;BMP280;65385;55.772;37.658;2023-08-31T05:41:18;99742.91;;;27.89
76541;BMP280;65385;55.772;37.658;2023-08-31T05:42:19;99744.44;;;28.04
76541;BMP280;65385;55.772;37.658;2023-08-31T05:43:19;99743.66;;;28.18
76541;BMP280;65385;55.772;37.658;2023-08-31T05:44:20;99752.94;;;28.31
76541;BMP280;65385;55.772;37.658;2023-08-31T05:45:20;99754.47;;;28.46
76541;BMP280;65385;55.772;37.658;2023-08-31T05:46:21;99749.03;;;28.57
76541;BMP280;65385;55.772;37.658;2023-08-31T05:47:22;99753.66;;;28.70
76541;BMP280;65385;55.772;37.658;2023-08-31T05:48:22;99750.56;;;28.75
76541;BMP280;65385;55.772;37.658;2023-08-31T05:49:23;99757.44;;;28.90
76541;BMP280;65385;55.772;37.658;2023-08-31T05:50:24;99752.44;;;28.96
76541;BMP280;65385;55.772;37.658;2023-08-31T05:51:24;99754.34;;;28.92
76541;BMP280;65385;55.772;37.658;2023-08-31T05:52:25;99757.03;;;29.02
76541;BMP280;65385;55.772;37.658;2023-08-31T05:53:25;99763.56;;;29.05
76541;BMP280;65385;55.772;37.658;2023-08-31T05:54:26;99756.25;;;29.06
76541;BMP280;65385;55.772;37.658;2023-08-31T05:55:27;99760.88;;;28.98
76541;BMP280;65385;55.772;37.658;2023-08-31T05:56:28;99762.44;;;29.02